Time;durP1;ratioP1;P1;durP2;ratioP2;P2;SDS_P1;SDS_P2;PMS_P1;PMS_P2;Temp;Humidity;BMP_temperature;BMP_pressure;BME280_temperature;BME280_humidity;BME280_pressure;Samples;Min_cycle;Max_cycle;Signal;HPM_P1;HPM_P2
2021/01/05 00:01:51;;;;;;;8.27;7.46;;;3.30;99.90;;;8.22;86.20;101623.45;1699801;75;24460;-82
2021/01/05 00:04:08;;;;;;;8.38;7.16;;;3.30;99.90;;;8.25;85.57;101626.17;1686257;75;24461;-82
2021/01/05 00:06:27;;;;;;;9.20;8.17;;;3.30;99.90;;;7.94;85.50;101624.65;1685746;75;24911;-82
2021/01/05 00:08:45;;;;;;;9.09;7.73;;;3.30;99.90;;;8.09;86.04;101617.39;1689462;75;24467;-81
2021/01/05 00:11:03;;;;;;;9.03;8.05;;;3.30;99.90;;;7.99;86.10;101621.39;1690415;75;24454;-81
2021/01/05 00:13:19;;;;;;;8.90;7.76;;;3.30;99.90;;;8.17;85.86;101619.38;1687666;75;24929;-80
2021/01/05 00:15:35;;;;;;;8.95;7.51;;;3.30;99.90;;;8.00;85.70;101624.44;1689335;75;24443;-81
2021/01/05 00:17:56;;;;;;;9.60;8.24;;;3.30;99.90;;;7.99;86.01;101623.98;1693876;75;24942;-80
2021/01/05 00:20:22;;;;;;;8.97;8.07;;;3.30;99.90;;;8.22;86.17;101629.94;1686555;75;24441;-80
2021/01/05 00:22:39;;;;;;;9.34;8.35;;;3.30;99.90;;;8.31;86.64;101632.45;1692427;75;24551;-81
2021/01/05 00:25:00;;;;;;;9.57;8.57;;;3.30;99.90;;;8.29;85.92;101636.70;1691055;75;24440;-81
2021/01/05 00:27:18;;;;;;;9.75;8.36;;;3.30;99.90;;;8.27;85.13;101629.67;1695086;75;24493;-81
2021/01/05 00:29:36;;;;;;;9.77;8.40;;;3.40;99.90;;;8.36;85.32;101632.15;1689853;75;24930;-81
2021/01/05 00:32:10;;;;;;;8.75;7.85;;;3.40;99.90;;;8.23;84.83;101624.83;1678971;75;24941;-81
2021/01/05 00:34:27;;;;;;;9.57;8.21;;;3.30;99.90;;;8.29;85.13;101631.91;1703032;75;24449;-83
2021/01/05 00:36:46;;;;;;;8.91;8.00;;;3.40;99.90;;;8.29;85.30;101625.42;1692698;75;24486;-80
2021/01/05 00:39:02;;;;;;;8.52;7.61;;;3.30;99.90;;;8.26;85.17;101622.73;1668464;75;24540;-81
2021/01/05 00:41:20;;;;;;;8.90;7.93;;;3.30;99.90;;;8.07;85.41;101630.31;1671534;76;24877;-80
2021/01/05 00:43:38;;;;;;;9.13;8.09;;;3.30;99.90;;;8.01;85.75;101624.03;1664415;76;24468;-81
2021/01/05 00:45:54;;;;;;;9.25;8.06;;;3.30;99.90;;;8.21;85.67;101622.97;1663991;76;24548;-81
2021/01/05 00:48:18;;;;;;;9.89;8.53;;;3.30;99.90;;;8.31;85.60;101630.26;1661230;76;24454;-81
2021/01/05 00:50:36;;;;;;;10.04;8.86;;;3.30;99.90;;;8.20;85.18;101623.80;1671396;76;24463;-82
2021/01/05 00:52:55;;;;;;;9.81;8.43;;;3.30;99.90;;;8.14;84.63;101626.20;1694656;75;24459;-80
2021/01/05 00:55:14;;;;;;;10.48;8.85;;;3.30;99.90;;;8.27;85.27;101629.27;1692111;74;24374;-81
2021/01/05 00:57:32;;;;;;;9.23;7.78;;;3.30;99.90;;;8.28;84.95;101630.16;1683251;75;24373;-79
2021/01/05 00:59:49;;;;;;;11.20;8.82;;;3.30;99.90;;;8.21;84.25;101626.45;1687814;75;24454;-80
2021/01/05 01:02:07;;;;;;;10.35;8.80;;;3.30;99.90;;;8.23;84.29;101630.42;1688215;75;24473;-81
2021/01/05 01:04:26;;;;;;;10.15;8.49;;;3.30;99.90;;;8.35;84.91;101631.70;1681033;75;24931;-81
2021/01/05 01:06:42;;;;;;;9.84;6.96;;;3.30;99.90;;;8.31;84.16;101635.05;1681414;75;24653;-81
2021/01/05 01:08:59;;;;;;;10.74;8.21;;;3.30;99.90;;;7.95;84.49;101639.39;1684822;75;24884;-81
2021/01/05 01:11:18;;;;;;;11.20;9.02;;;3.30;99.90;;;7.96;85.31;101633.37;1699703;75;24436;-80
2021/01/05 01:13:40;;;;;;;10.76;8.66;;;3.30;99.90;;;7.97;85.46;101641.60;1692937;75;24450;-81
2021/01/05 01:15:59;;;;;;;11.72;9.00;;;3.30;99.90;;;7.98;85.22;101640.39;1680598;75;24533;-81
2021/01/05 01:18:15;;;;;;;10.13;8.56;;;3.30;99.90;;;7.92;85.21;101640.16;1697545;75;24557;-81
2021/01/05 01:20:32;;;;;;;9.65;8.18;;;3.30;99.90;;;8.01;85.49;101643.08;1693485;75;24584;-81
2021/01/05 01:22:49;;;;;;;9.29;7.64;;;3.30;99.90;;;7.93;85.02;101647.13;1680218;75;24914;-80
2021/01/05 01:25:08;;;;;;;9.35;8.30;;;3.30;99.90;;;7.86;85.41;101645.14;1686724;75;24941;-81
2021/01/05 01:27:26;;;;;;;10.57;9.12;;;3.30;99.90;;;7.96;85.95;101638.15;1678896;75;24430;-81
2021/01/05 01:29:42;;;;;;;10.67;8.62;;;3.30;99.90;;;8.13;85.35;101642.58;1696252;75;24524;-80
2021/01/05 01:32:01;;;;;;;9.59;8.48;;;3.30;99.90;;;8.30;84.87;101644.07;1700539;75;24467;-81
2021/01/05 01:34:24;;;;;;;10.33;8.51;;;3.30;99.90;;;8.36;84.65;101641.67;1699927;75;24497;-80
2021/01/05 01:36:41;;;;;;;9.82;8.37;;;3.30;99.90;;;8.33;83.76;101642.43;1671661;74;24953;-81
2021/01/05 01:38:57;;;;;;;8.69;7.57;;;3.30;99.90;;;8.11;84.01;101647.72;1700457;74;24499;-80
2021/01/05 01:41:16;;;;;;;10.03;8.14;;;3.30;99.90;;;7.86;84.41;101651.63;1706741;74;24462;-80
2021/01/05 01:43:33;;;;;;;11.55;8.81;;;3.30;99.90;;;7.97;85.20;101645.49;1720671;74;24499;-80
2021/01/05 01:45:52;;;;;;;11.18;9.03;;;3.30;99.90;;;8.01;84.77;101646.97;1707559;74;24382;-82
2021/01/05 01:48:12;;;;;;;10.41;8.15;;;3.30;99.90;;;8.04;84.60;101651.36;1706449;74;24402;-82
2021/01/05 01:50:32;;;;;;;10.46;8.86;;;3.30;99.90;;;7.91;84.53;101645.29;1721962;74;24440;-80
2021/01/05 01:56:32;;;;;;;10.93;8.36;;;3.30;99.90;;;8.26;85.69;101638.30;1744386;72;25804;-81
2021/01/05 01:59:24;;;;;;;11.36;9.44;;;3.30;99.90;;;8.07;84.69;101641.98;1709781;74;24898;-82
2021/01/05 02:01:54;;;;;;;11.41;8.99;;;3.30;99.90;;;8.26;84.61;101637.00;1708096;74;24542;-80
2021/01/05 02:08:06;;;;;;;10.47;8.90;;;3.30;99.90;;;8.41;83.90;101634.92;1742888;72;25235;-81
2021/01/05 02:10:53;;;;;;;10.19;9.09;;;3.20;99.90;;;8.27;85.03;101634.86;1713836;74;24543;-81
2021/01/05 02:16:28;;;;;;;10.12;7.55;;;3.20;99.90;;;8.26;83.85;101626.22;1749014;72;25191;-82
2021/01/05 02:18:51;;;;;;;10.17;8.70;;;3.20;99.90;;;7.94;84.38;101628.13;1717000;74;24859;-80
2021/01/05 02:21:16;;;;;;;9.85;8.80;;;3.20;99.90;;;8.13;84.48;101626.61;1718277;75;24447;-80
2021/01/05 02:23:50;;;;;;;10.76;9.07;;;3.30;99.90;;;8.22;84.53;101624.75;1719294;73;24451;-82
2021/01/05 02:26:14;;;;;;;10.10;8.93;;;3.30;99.90;;;8.15;84.11;101626.66;1723321;73;24423;-81
2021/01/05 02:28:38;;;;;;;10.50;8.86;;;3.20;99.90;;;8.24;85.07;101629.58;1719176;73;24393;-81
2021/01/05 02:31:00;;;;;;;11.30;8.86;;;3.30;99.90;;;8.29;83.90;101631.91;1718093;73;24469;-80
2021/01/05 02:33:29;;;;;;;10.19;8.61;;;3.30;99.90;;;8.21;83.81;101626.45;1719567;73;24445;-80
2021/01/05 02:39:38;;;;;;;10.81;8.61;;;3.30;99.90;;;8.35;84.45;101625.61;1735782;72;25305;-80
2021/01/05 02:42:54;;;;;;;9.68;8.22;;;3.30;99.90;;;8.15;84.57;101629.26;1653035;75;24385;-79
2021/01/05 02:45:33;;;;;;;10.64;8.63;;;3.30;99.90;;;8.36;84.60;101626.95;1685363;75;24377;-80
2021/01/05 02:48:33;;;;;;;10.27;8.01;;;3.30;99.90;;;8.25;84.23;101624.44;1690610;75;24824;-79
2021/01/05 02:51:41;;;;;;;9.96;8.09;;;3.30;99.90;;;8.32;83.21;101622.92;1688416;75;24369;-81
2021/01/05 02:54:56;;;;;;;10.83;8.87;;;3.30;99.90;;;8.35;83.39;101624.31;1692848;75;24400;-78
2021/01/05 03:01:56;;;;;;;9.47;7.75;;;3.30;99.90;;;8.45;83.34;101616.00;1789302;69;25233;-80
2021/01/05 03:04:31;;;;;;;10.70;8.51;;;3.30;99.90;;;8.27;82.99;101615.00;1773730;71;24925;-81
2021/01/05 03:07:05;;;;;;;10.97;8.69;;;3.30;99.90;;;8.30;83.76;101614.23;1713037;71;24931;-80
2021/01/05 03:10:15;;;;;;;12.05;9.28;;;3.30;99.90;;;8.41;83.24;101613.72;1781156;71;24925;-79
2021/01/05 03:13:35;;;;;;;10.35;8.93;;;3.30;99.90;;;8.42;83.85;101611.61;1777967;70;24418;-81
2021/01/05 03:16:14;;;;;;;14.01;9.26;;;3.30;99.90;;;8.31;83.16;101615.98;1777917;71;24858;-82
2021/01/05 03:18:57;;;;;;;10.45;8.85;;;3.30;99.90;;;8.16;82.94;101618.03;1771192;71;24402;-80
2021/01/05 03:21:44;;;;;;;11.09;9.14;;;3.30;99.90;;;8.28;83.31;101618.48;1781009;70;24425;-80
2021/01/05 03:24:21;;;;;;;11.99;9.75;;;3.30;99.90;;;8.41;83.13;101615.02;1778544;72;24386;-79
2021/01/05 03:26:58;;;;;;;10.88;9.53;;;3.30;99.90;;;8.29;83.36;101621.53;1780959;71;24452;-80
2021/01/05 03:29:33;;;;;;;11.79;9.04;;;3.30;99.90;;;8.41;84.11;101616.75;1785932;70;24362;-80
2021/01/05 03:32:13;;;;;;;12.32;9.96;;;3.30;99.90;;;8.26;82.93;101620.14;1789918;70;24384;-80
2021/01/05 03:34:48;;;;;;;12.58;10.12;;;3.30;99.90;;;8.19;83.88;101618.16;1781398;71;24420;-80
2021/01/05 03:37:24;;;;;;;12.58;10.42;;;3.30;99.90;;;8.17;83.49;101618.52;1745205;72;24485;-80
2021/01/05 03:39:58;;;;;;;13.18;10.38;;;3.30;99.90;;;8.17;84.10;101623.27;1788256;71;24533;-80
2021/01/05 03:42:32;;;;;;;13.13;10.00;;;3.30;99.90;;;8.17;83.61;101615.48;1784527;70;24356;-80
2021/01/05 03:45:10;;;;;;;13.04;10.44;;;3.30;99.90;;;8.02;84.01;101623.19;1764722;71;24446;-80
2021/01/05 03:47:46;;;;;;;13.26;9.92;;;3.30;99.90;;;8.16;84.16;101619.34;1771693;71;24560;-80
2021/01/05 03:50:06;;;;;;;13.20;10.60;;;3.30;99.90;;;8.04;84.06;101626.73;1700967;70;24462;-80
2021/01/05 03:52:42;;;;;;;13.32;10.99;;;3.30;99.90;;;8.37;84.12;101614.88;1775614;70;24422;-80
2021/01/05 03:55:19;;;;;;;12.59;10.42;;;3.30;99.90;;;8.22;83.44;101615.23;1780467;71;24843;-79
2021/01/05 03:57:53;;;;;;;13.66;10.78;;;3.30;99.90;;;8.37;83.43;101609.69;1771042;71;24839;-80
2021/01/05 04:03:00;;;;;;;12.57;10.62;;;3.40;99.90;;;8.47;82.39;101607.85;1743012;72;25270;-79
2021/01/05 04:05:17;;;;;;;14.49;11.06;;;3.40;99.90;;;8.38;82.53;101602.36;1708295;74;24479;-80
2021/01/05 04:07:33;;;;;;;14.04;10.58;;;3.40;99.90;;;8.27;82.46;101605.92;1706617;74;24866;-80
2021/01/05 04:09:52;;;;;;;13.55;10.61;;;3.40;99.90;;;8.32;82.47;101607.36;1709522;74;24441;-80
2021/01/05 04:12:09;;;;;;;13.35;9.29;;;3.40;99.90;;;8.51;82.44;101605.80;1708323;74;24466;-80
2021/01/05 04:14:27;;;;;;;14.04;10.80;;;3.40;99.90;;;8.07;82.52;101604.78;1707001;74;24440;-79
2021/01/05 04:16:47;;;;;;;14.06;11.00;;;3.40;99.90;;;8.10;83.55;101606.17;1713502;74;24456;-80
2021/01/05 04:19:05;;;;;;;14.39;11.27;;;3.40;99.90;;;8.13;84.04;101611.05;1711880;74;24423;-79
2021/01/05 04:21:26;;;;;;;12.93;10.76;;;3.40;99.90;;;8.23;83.53;101606.67;1706541;75;25085;-80
2021/01/05 04:23:44;;;;;;;13.39;11.38;;;3.40;99.90;;;8.22;83.53;101606.59;1710524;74;24557;-80
2021/01/05 04:26:00;;;;;;;13.58;10.92;;;3.40;99.90;;;8.27;83.37;101609.81;1707814;74;24500;-79
2021/01/05 04:28:19;;;;;;;14.05;11.43;;;3.50;99.90;;;8.08;83.46;101608.72;1714870;74;24492;-80
2021/01/05 04:30:41;;;;;;;15.00;11.62;;;3.50;99.90;;;8.13;83.97;101603.67;1713435;74;24468;-80
2021/01/05 04:33:01;;;;;;;14.05;11.35;;;3.40;99.90;;;7.99;84.50;101601.94;1706945;75;24519;-80
2021/01/05 04:35:22;;;;;;;14.82;11.24;;;3.40;99.90;;;8.30;84.65;101602.13;1706155;75;24921;-80
2021/01/05 04:37:39;;;;;;;15.61;11.95;;;3.40;99.90;;;8.27;83.36;101607.63;1714862;74;24990;-80
2021/01/05 04:39:56;;;;;;;14.99;10.78;;;3.40;99.90;;;8.37;83.91;101601.91;1714609;74;24551;-80
2021/01/05 04:42:21;;;;;;;14.39;11.47;;;3.50;99.90;;;8.20;82.70;101601.76;1714380;74;24633;-80
2021/01/05 04:44:44;;;;;;;15.64;11.40;;;3.40;99.90;;;8.27;83.58;101607.63;1712716;74;24853;-79
2021/01/05 04:47:06;;;;;;;13.99;10.73;;;3.50;99.90;;;8.17;82.99;101606.84;1706561;74;24445;-80
2021/01/05 04:49:39;;;;;;;15.45;11.48;;;3.50;99.90;;;8.13;83.49;101612.75;1715357;74;24555;-79
2021/01/05 04:52:01;;;;;;;16.30;12.15;;;3.40;99.90;;;8.25;83.81;101606.28;1711853;74;24489;-79
2021/01/05 04:54:23;;;;;;;16.26;11.78;;;3.50;99.90;;;8.27;83.09;101612.81;1707508;74;24432;-80
2021/01/05 04:56:47;;;;;;;15.21;11.39;;;3.50;99.90;;;8.22;83.70;101611.34;1706344;74;24445;-80
2021/01/05 04:59:06;;;;;;;16.24;11.61;;;3.40;99.90;;;8.29;84.30;101614.64;1709457;74;24536;-80
2021/01/05 05:01:27;;;;;;;15.32;12.51;;;3.50;99.90;;;8.18;83.29;101617.67;1714539;74;24452;-80
2021/01/05 05:04:02;;;;;;;15.15;12.28;;;3.50;99.90;;;8.44;83.81;101616.84;1708087;74;24523;-80
2021/01/05 05:06:43;;;;;;;14.85;11.82;;;3.50;99.90;;;8.37;82.98;101614.88;1719571;74;24462;-81
2021/01/05 05:09:24;;;;;;;14.76;11.65;;;3.50;99.90;;;8.50;83.28;101615.33;1705663;74;24422;-79
2021/01/05 05:11:55;;;;;;;15.10;11.80;;;3.50;99.90;;;8.36;82.18;101611.83;1711474;74;24477;-80
2021/01/05 05:14:19;;;;;;;14.23;11.17;;;3.40;99.90;;;8.36;82.72;101613.13;1707551;74;24420;-81
2021/01/05 05:16:59;;;;;;;13.99;11.00;;;3.40;99.90;;;8.35;82.72;101619.13;1710455;74;24585;-80
2021/01/05 05:19:39;;;;;;;14.98;11.14;;;3.40;99.90;;;8.39;82.78;101613.22;1706382;74;24451;-80
2021/01/05 05:22:01;;;;;;;13.37;9.83;;;3.40;99.90;;;8.61;82.42;101615.23;1707944;74;24886;-79
2021/01/05 05:24:46;;;;;;;14.78;11.57;;;3.40;99.90;;;8.25;82.15;101620.55;1710638;74;24464;-80
2021/01/05 05:27:14;;;;;;;13.60;9.92;;;3.40;99.90;;;8.35;82.83;101623.02;1711175;74;24435;-81
2021/01/05 05:29:47;;;;;;;15.90;11.53;;;3.40;99.90;;;8.16;82.78;101620.63;1710786;74;24463;-80
2021/01/05 05:32:12;;;;;;;13.75;10.88;;;3.40;99.90;;;8.34;83.01;101627.34;1711271;74;24433;-81
2021/01/05 05:34:35;;;;;;;13.03;10.45;;;3.40;99.90;;;8.19;82.74;101624.66;1711460;74;24912;-80
2021/01/05 05:37:08;;;;;;;13.66;10.70;;;3.40;99.90;;;8.46;82.99;101628.12;1706146;74;24444;-80
2021/01/05 05:39:58;;;;;;;13.82;10.10;;;3.40;99.90;;;8.29;82.96;101631.91;1710311;74;24932;-80
2021/01/05 05:42:46;;;;;;;13.09;9.92;;;3.40;99.90;;;8.28;82.91;101634.05;1711938;74;24475;-81
2021/01/05 05:45:09;;;;;;;12.97;10.44;;;3.30;99.90;;;8.13;83.41;101633.09;1715630;74;25115;-81
2021/01/05 05:47:31;;;;;;;14.08;10.73;;;3.30;99.90;;;8.27;83.66;101634.45;1713908;74;24496;-80
2021/01/05 05:49:58;;;;;;;13.29;9.47;;;3.30;99.90;;;8.25;82.65;101635.25;1706885;74;24473;-81
2021/01/05 05:55:28;;;;;;;14.20;11.07;;;3.30;99.90;;;8.49;82.81;101632.11;1747903;72;25308;-80
2021/01/05 05:57:51;;;;;;;13.80;11.04;;;3.30;99.90;;;8.37;83.52;101635.63;1722411;73;24609;-80
2021/01/05 06:00:33;;;;;;;13.61;10.69;;;3.30;99.90;;;8.44;82.30;101640.20;1722580;73;24518;-80
2021/01/05 06:02:50;;;;;;;14.12;10.63;;;3.40;99.90;;;8.37;82.45;101635.23;1718602;73;24431;-81
2021/01/05 06:05:28;;;;;;;13.39;10.57;;;3.40;99.90;;;8.35;82.55;101635.59;1718396;73;24984;-81
2021/01/05 06:07:48;;;;;;;13.37;10.29;;;3.40;99.90;;;8.35;82.68;101635.99;1716938;73;24981;-81
2021/01/05 06:10:08;;;;;;;13.68;11.01;;;3.40;99.90;;;8.32;83.69;101639.38;1720119;73;24507;-81
2021/01/05 06:12:25;;;;;;;15.67;11.38;;;3.40;99.90;;;8.44;82.78;101645.39;1718724;73;24495;-79
2021/01/05 06:14:45;;;;;;;13.93;11.30;;;3.40;99.90;;;8.45;83.12;101644.14;1723853;73;24452;-80
2021/01/05 06:17:01;;;;;;;13.85;10.34;;;3.40;99.90;;;8.53;83.51;101643.08;1722054;73;24525;-80
2021/01/05 06:19:17;;;;;;;13.93;11.27;;;3.40;99.90;;;8.23;82.54;101645.58;1722449;73;24947;-80
2021/01/05 06:21:35;;;;;;;13.65;10.15;;;3.40;99.90;;;8.15;83.65;101642.23;1725054;73;24522;-81
2021/01/05 06:23:52;;;;;;;12.87;10.87;;;3.40;99.90;;;8.17;83.84;101649.66;1719519;73;24490;-79
2021/01/05 06:26:10;;;;;;;13.17;10.36;;;3.40;99.90;;;8.34;83.58;101642.92;1718445;73;24435;-81
2021/01/05 06:28:26;;;;;;;13.76;10.24;;;3.40;99.90;;;8.26;83.68;101642.19;1721325;73;24475;-80
2021/01/05 06:30:43;;;;;;;12.43;9.35;;;3.40;99.90;;;8.37;83.40;101646.91;1717710;75;24502;-79
2021/01/05 06:33:01;;;;;;;13.64;10.50;;;3.40;99.90;;;8.24;83.23;101647.33;1718224;73;24490;-80
2021/01/05 06:35:22;;;;;;;13.97;10.54;;;3.40;99.90;;;8.19;83.88;101640.22;1719037;73;24975;-79
2021/01/05 06:37:40;;;;;;;13.39;10.36;;;3.40;99.90;;;8.27;84.28;101649.13;1716894;74;24448;-81
2021/01/05 06:39:58;;;;;;;12.58;9.26;;;3.40;99.90;;;8.47;83.92;101648.94;1717214;73;24481;-79
2021/01/05 06:42:15;;;;;;;14.19;10.74;;;3.40;99.90;;;8.17;84.24;101650.95;1721325;73;24910;-79
2021/01/05 06:44:35;;;;;;;13.42;10.58;;;3.40;99.90;;;8.34;84.61;101645.92;1720649;73;24496;-79
2021/01/05 06:46:54;;;;;;;12.18;10.08;;;3.50;99.90;;;8.41;83.78;101653.94;1717786;73;24440;-80
2021/01/05 06:49:12;;;;;;;13.76;10.16;;;3.40;99.90;;;8.52;83.82;101649.11;1729364;73;24452;-80
2021/01/05 06:51:28;;;;;;;12.81;10.41;;;3.50;99.90;;;8.23;83.55;101657.26;1721632;73;24449;-79
2021/01/05 06:53:45;;;;;;;14.40;10.42;;;3.50;99.90;;;8.35;83.68;101650.27;1719155;73;25024;-80
2021/01/05 06:56:01;;;;;;;12.11;9.00;;;3.50;99.90;;;8.43;83.48;101657.48;1729077;74;24923;-80
2021/01/05 06:58:18;;;;;;;14.29;10.52;;;3.50;99.90;;;8.19;83.64;101659.67;1714086;74;24882;-80
2021/01/05 07:00:36;;;;;;;14.09;10.60;;;3.50;99.90;;;8.46;84.33;101664.47;1708274;74;24933;-81
2021/01/05 07:02:54;;;;;;;13.64;10.27;;;3.50;99.90;;;8.34;83.81;101656.30;1699463;74;24453;-79
2021/01/05 07:05:20;;;;;;;13.61;10.39;;;3.50;99.90;;;8.41;83.80;101662.16;1690200;75;24438;-79
2021/01/05 07:07:38;;;;;;;14.31;10.54;;;3.50;99.90;;;8.35;83.30;101664.13;1702500;74;24451;-79
2021/01/05 07:09:56;;;;;;;14.83;10.30;;;3.50;99.90;;;8.37;83.24;101658.98;1706338;74;24496;-78
2021/01/05 07:12:14;;;;;;;14.03;10.02;;;3.50;99.90;;;8.31;83.67;101653.61;1701339;74;24555;-78
2021/01/05 07:14:31;;;;;;;14.42;10.66;;;3.50;99.90;;;8.33;83.87;101659.30;1702365;74;24697;-80
2021/01/05 07:16:47;;;;;;;13.86;9.86;;;3.50;99.90;;;8.45;84.16;101664.91;1708756;74;24433;-78
2021/01/05 07:19:03;;;;;;;14.07;10.77;;;3.50;99.90;;;8.42;83.14;101671.30;1701403;74;24465;-77
2021/01/05 07:21:21;;;;;;;15.49;10.69;;;3.50;99.90;;;8.50;83.96;101670.23;1698321;74;24495;-76
2021/01/05 07:23:40;;;;;;;15.32;10.57;;;3.50;99.90;;;8.33;84.07;101675.30;1703309;74;24475;-78
2021/01/05 07:25:58;;;;;;;12.74;9.23;;;3.50;99.90;;;8.42;83.49;101672.59;1693508;74;24446;-77
2021/01/05 07:28:15;;;;;;;15.11;11.14;;;3.50;99.90;;;8.35;83.34;101681.00;1702979;74;24545;-77
2021/01/05 07:30:35;;;;;;;15.56;9.29;;;3.50;99.90;;;8.48;83.90;101680.57;1709728;74;24470;-79
2021/01/05 07:32:51;;;;;;;14.30;10.22;;;3.50;99.90;;;8.31;83.90;101682.15;1714735;74;24427;-78
2021/01/05 07:35:22;;;;;;;15.77;11.33;;;3.50;99.90;;;8.29;84.26;101686.39;1716129;74;24875;-80
2021/01/05 07:37:43;;;;;;;14.27;9.75;;;3.50;99.90;;;8.38;83.84;101690.58;1706880;74;24426;-80
2021/01/05 07:40:03;;;;;;;15.37;11.00;;;3.50;99.90;;;8.31;83.90;101689.53;1721086;74;24520;-79
2021/01/05 07:42:26;;;;;;;17.22;11.53;;;3.50;99.90;;;8.30;84.37;101690.78;1703030;74;24459;-80
2021/01/05 07:44:47;;;;;;;13.06;8.82;;;3.50;99.90;;;8.47;84.06;101682.67;1701853;74;24870;-78
2021/01/05 07:47:10;;;;;;;17.68;12.27;;;3.50;99.90;;;8.30;83.46;101688.18;1709430;74;24450;-78
2021/01/05 07:49:28;;;;;;;16.04;11.35;;;3.50;99.90;;;8.46;84.46;101682.23;1703462;74;24903;-79
2021/01/05 07:51:49;;;;;;;15.46;10.94;;;3.50;99.90;;;8.48;82.83;101683.57;1712707;74;24550;-77
2021/01/05 07:54:06;;;;;;;18.14;11.86;;;3.50;99.90;;;8.46;83.89;101687.41;1701262;74;24484;-79
2021/01/05 07:56:33;;;;;;;14.96;10.40;;;3.50;99.90;;;8.53;83.16;101692.39;1706825;73;25083;-78
2021/01/05 07:58:51;;;;;;;16.08;11.45;;;3.50;99.90;;;8.35;83.00;101689.19;1715083;73;24882;-77
2021/01/05 08:01:10;;;;;;;16.60;11.94;;;3.50;99.90;;;8.25;84.72;101700.11;1716639;73;24920;-79
2021/01/05 08:03:26;;;;;;;18.01;12.73;;;3.50;99.90;;;8.53;83.88;101697.58;1696647;75;24494;-81
2021/01/05 08:05:45;;;;;;;18.06;11.50;;;3.60;99.90;;;8.67;83.43;101697.60;1714739;73;24495;-83
2021/01/05 08:08:04;;;;;;;17.79;12.60;;;3.60;99.90;;;8.56;82.37;101698.57;1716162;74;24955;-81
2021/01/05 08:10:26;;;;;;;15.87;11.03;;;3.60;99.90;;;8.45;83.85;101696.05;1725330;73;24918;-82
2021/01/05 08:12:46;;;;;;;18.17;12.60;;;3.60;99.90;;;8.37;83.54;101704.40;1724748;73;24894;-80
2021/01/05 08:15:06;;;;;;;17.53;10.70;;;3.60;99.90;;;8.63;83.67;101695.32;1729177;73;24450;-81
2021/01/05 08:20:35;;;;;;;15.92;11.24;;;3.60;99.90;;;8.50;82.93;101697.08;1742541;72;25287;-82
2021/01/05 08:22:52;;;;;;;15.50;10.79;;;3.60;99.90;;;8.64;83.87;101698.81;1725193;73;24435;-81
2021/01/05 08:25:14;;;;;;;20.00;13.10;;;3.60;99.90;;;8.36;82.86;101698.31;1721743;73;24491;-82
2021/01/05 08:27:35;;;;;;;16.87;12.08;;;3.60;99.90;;;8.52;84.14;101694.53;1727668;73;24866;-81
2021/01/05 08:29:59;;;;;;;17.34;12.44;;;3.60;99.90;;;8.58;83.35;101705.11;1728238;73;24464;-81
2021/01/05 08:32:16;;;;;;;18.16;12.37;;;3.60;99.90;;;8.51;83.18;101700.53;1724726;73;24475;-80
2021/01/05 08:34:33;;;;;;;14.70;11.46;;;3.60;99.90;;;8.57;83.47;101707.22;1720558;73;24475;-81
2021/01/05 08:36:54;;;;;;;16.19;12.26;;;3.60;99.90;;;8.43;83.71;101713.67;1720031;73;24503;-79
2021/01/05 08:39:13;;;;;;;17.67;12.48;;;3.60;99.90;;;8.70;83.36;101711.97;1716337;74;25000;-78
2021/01/05 08:41:29;;;;;;;16.70;11.84;;;3.70;99.90;;;8.78;82.74;101709.20;1722368;73;25611;-77
2021/01/05 08:43:46;;;;;;;16.27;11.93;;;3.70;99.90;;;8.74;82.78;101706.06;1717287;73;24524;-82
2021/01/05 08:46:03;;;;;;;17.40;12.55;;;3.70;99.90;;;8.65;82.28;101707.05;1718941;73;24510;-79
2021/01/05 08:48:20;;;;;;;18.28;12.36;;;3.70;99.90;;;8.69;82.85;101710.23;1715886;73;24909;-81
2021/01/05 08:50:40;;;;;;;16.03;11.75;;;3.70;99.90;;;8.79;82.50;101705.77;1717347;73;24530;-80
2021/01/05 08:53:02;;;;;;;16.70;12.26;;;3.70;99.90;;;8.61;82.92;101707.80;1715475;73;24589;-82
2021/01/05 08:55:20;;;;;;;17.15;12.36;;;3.80;99.90;;;8.80;82.88;101703.66;1669519;73;25032;-82
2021/01/05 08:57:37;;;;;;;16.79;12.71;;;3.80;99.90;;;8.66;82.71;101708.83;1719410;73;24553;-82
2021/01/05 08:59:55;;;;;;;18.32;13.46;;;3.80;99.90;;;8.82;82.29;101706.75;1716031;73;24476;-80
2021/01/05 09:02:11;;;;;;;17.88;13.65;;;3.80;99.90;;;8.74;83.26;101707.36;1721866;73;24494;-82
2021/01/05 09:04:29;;;;;;;17.18;12.73;;;3.80;99.90;;;8.92;83.26;101714.41;1715208;73;24632;-80
2021/01/05 09:06:50;;;;;;;19.27;13.95;;;3.80;99.90;;;8.76;82.52;101705.67;1719565;73;24502;-81
2021/01/05 09:09:09;;;;;;;19.88;13.60;;;3.80;99.90;;;8.92;83.00;101709.22;1715566;75;24516;-82
2021/01/05 09:11:30;;;;;;;19.39;13.59;;;3.80;99.90;;;8.98;82.59;101705.09;1716374;73;24520;-81
2021/01/05 09:13:48;;;;;;;18.59;13.39;;;3.90;99.90;;;8.83;81.68;101712.43;1726195;73;24499;-81
2021/01/05 09:16:07;;;;;;;16.75;13.06;;;3.80;99.90;;;8.89;82.29;101711.72;1716348;74;24539;-81
2021/01/05 09:18:46;;;;;;;16.02;12.66;;;3.90;99.90;;;8.93;82.07;101714.90;1716740;73;24389;-80
2021/01/05 09:21:04;;;;;;;17.06;12.89;;;3.90;99.90;;;8.96;82.13;101713.25;1708380;74;24779;-81
2021/01/05 09:23:25;;;;;;;16.10;12.83;;;3.90;99.90;;;8.93;81.63;101707.11;1709724;74;24625;-81
2021/01/05 09:25:44;;;;;;;15.72;11.92;;;3.90;99.90;;;8.95;81.81;101711.50;1710283;74;24900;-80
2021/01/05 09:28:05;;;;;;;15.67;12.10;;;3.90;99.90;;;8.94;82.01;101713.64;1714174;74;24433;-81
2021/01/05 09:30:24;;;;;;;17.96;12.11;;;3.90;99.90;;;9.01;81.91;101713.38;1708469;74;24484;-80
2021/01/05 09:32:44;;;;;;;16.44;12.55;;;4.00;99.90;;;8.74;81.64;101713.85;1704616;74;24827;-81
2021/01/05 09:35:13;;;;;;;15.80;11.89;;;4.00;99.90;;;8.94;82.96;101720.55;1713271;74;24518;-81
2021/01/05 09:37:30;;;;;;;16.16;12.00;;;4.00;99.90;;;8.70;82.96;101711.97;1711468;74;24461;-81
2021/01/05 09:39:47;;;;;;;15.42;12.50;;;4.00;99.90;;;8.94;82.85;101716.23;1708685;74;24582;-81
2021/01/05 09:42:09;;;;;;;14.74;11.93;;;4.00;99.90;;;9.01;82.57;101721.17;1715656;74;24467;-81
2021/01/05 09:44:44;;;;;;;17.87;12.51;;;4.00;99.90;;;9.05;82.27;101724.35;1706310;75;24455;-80
2021/01/05 09:47:06;;;;;;;14.34;10.96;;;4.10;99.90;;;9.07;82.64;101722.69;1704786;75;24520;-80
2021/01/05 09:49:24;;;;;;;14.83;11.56;;;4.00;99.90;;;9.07;81.34;101722.69;1712454;74;24517;-81
2021/01/05 09:51:42;;;;;;;13.79;10.05;;;4.10;99.90;;;9.08;81.80;101716.23;1707529;74;24683;-80
2021/01/05 09:54:03;;;;;;;13.80;10.82;;;4.10;99.90;;;9.00;81.13;101719.42;1711571;74;25031;-80
2021/01/05 09:56:25;;;;;;;14.96;11.84;;;4.10;99.90;;;9.18;81.87;101714.80;1707288;74;24550;-78
2021/01/05 09:58:46;;;;;;;13.67;11.33;;;4.10;99.90;;;9.12;81.59;101719.38;1706381;74;24456;-81
2021/01/05 10:01:28;;;;;;;15.87;12.03;;;4.10;99.90;;;9.09;80.97;101719.29;1711798;74;24548;-83
2021/01/05 10:03:48;;;;;;;14.00;11.14;;;4.10;99.90;;;9.09;81.39;101725.78;1710143;74;24963;-82
2021/01/05 10:06:10;;;;;;;13.90;11.32;;;4.10;99.90;;;9.05;81.44;101723.95;1717964;74;24508;-85
2021/01/05 10:08:26;;;;;;;15.00;11.63;;;4.10;99.90;;;8.94;81.75;101725.73;1706122;74;24914;-83
2021/01/05 10:10:51;;;;;;;14.65;12.52;;;4.10;99.90;;;8.96;81.73;101721.48;1705699;74;24481;-83
2021/01/05 10:13:10;;;;;;;14.17;11.35;;;4.10;99.90;;;9.04;81.76;101711.77;1704203;75;25119;-83
2021/01/05 10:15:28;;;;;;;13.50;11.06;;;4.10;99.90;;;9.01;81.37;101726.38;1707530;74;24754;-83
2021/01/05 10:17:46;;;;;;;14.06;10.54;;;4.10;99.90;;;8.96;80.86;101722.78;1714365;73;24458;-82
2021/01/05 10:20:12;;;;;;;13.87;11.58;;;4.10;99.90;;;8.75;82.00;101726.88;1715078;74;24565;-81
2021/01/05 10:22:30;;;;;;;13.40;11.25;;;4.10;99.90;;;9.16;81.55;101724.26;1705721;74;24524;-83
2021/01/05 10:24:54;;;;;;;13.26;11.04;;;4.10;99.90;;;8.99;81.21;101725.47;1705207;74;24490;-82
2021/01/05 10:27:12;;;;;;;12.95;9.89;;;4.10;99.90;;;8.98;80.95;101731.06;1709066;74;24503;-79
2021/01/05 10:29:28;;;;;;;11.98;10.08;;;4.10;99.90;;;8.86;81.01;101729.81;1705236;75;24947;-86